ZKJEE NZNS-NZHK

Flight info

Callsign ZKJEE
Flight time 1h 2m
Altitude 10000
Route CONOR H267 WS Q197 OSRIB
Aircraft DHC6/L-SDFGR/C

Departure

Time 2026-04-29 04:19
Airport Nelson Airport (NZNS)

Arrival

Time 2026-04-29 05:21
Airport Hokitika Airfield (NZHK)
Time Latitude Longitude Altitude Speed Heading
2026-04-29 04:13 -41.30124 173.21915 15 ft 0 kts 41°
2026-04-29 04:16 -41.30123 173.21915 15 ft 0 kts 41°
2026-04-29 04:18 -41.29974 173.22087 15 ft 69 kts 41°
2026-04-29 04:18 -41.29457 173.22683 29 ft 117 kts 41°
2026-04-29 04:19 -41.28848 173.23384 334 ft 116 kts 41°
2026-04-29 04:19 -41.28199 173.24085 629 ft 125 kts 24°
2026-04-29 04:19 -41.27376 173.23975 970 ft 122 kts 321°
2026-04-29 04:19 -41.26969 173.23049 1371 ft 117 kts 289°
2026-04-29 04:20 -41.26729 173.21987 1721 ft 123 kts 284°
2026-04-29 04:20 -41.26482 173.20862 2079 ft 127 kts 285°
2026-04-29 04:20 -41.26220 173.19759 2520 ft 123 kts 283°
2026-04-29 04:20 -41.25951 173.18705 2871 ft 123 kts 284°
2026-04-29 04:21 -41.25620 173.17628 3230 ft 124 kts 288°
2026-04-29 04:21 -41.25206 173.16624 3580 ft 126 kts 295°
2026-04-29 04:21 -41.24654 173.15697 3934 ft 129 kts 303°
2026-04-29 04:21 -41.24012 173.14874 4283 ft 130 kts 307°
2026-04-29 04:22 -41.23343 173.14077 4634 ft 129 kts 306°
2026-04-29 04:22 -41.22715 173.13256 4981 ft 124 kts 298°
2026-04-29 04:22 -41.22481 173.12244 5336 ft 112 kts 270°
2026-04-29 04:22 -41.22473 173.11208 5688 ft 112 kts 266°
2026-04-29 04:23 -41.22491 173.10176 6035 ft 113 kts 266°
2026-04-29 04:23 -41.22502 173.09116 6387 ft 113 kts 267°
2026-04-29 04:23 -41.22504 173.08076 6735 ft 114 kts 268°
2026-04-29 04:23 -41.22496 173.07007 7085 ft 115 kts 269°
2026-04-29 04:24 -41.22486 173.05936 7431 ft 117 kts 269°
2026-04-29 04:24 -41.22468 173.04855 7779 ft 118 kts 270°
2026-04-29 04:24 -41.22449 173.03762 8128 ft 119 kts 270°
2026-04-29 04:24 -41.22432 173.02659 8474 ft 120 kts 271°
2026-04-29 04:25 -41.22407 173.01549 8820 ft 121 kts 271°
2026-04-29 04:25 -41.22397 173.00428 9166 ft 122 kts 268°
2026-04-29 04:25 -41.22734 172.99388 9511 ft 126 kts 235°
2026-04-29 04:25 -41.23332 172.98541 9844 ft 130 kts 230°
2026-04-29 04:26 -41.24004 172.97649 9977 ft 141 kts 229°
2026-04-29 04:26 -41.24735 172.96689 10005 ft 153 kts 229°
2026-04-29 04:26 -41.25512 172.95668 10005 ft 161 kts 229°
2026-04-29 04:26 -41.26319 172.94605 10008 ft 167 kts 229°
2026-04-29 04:27 -41.27148 172.93507 10003 ft 170 kts 229°
2026-04-29 04:27 -41.27991 172.92387 10005 ft 172 kts 229°
2026-04-29 04:27 -41.28842 172.91256 10004 ft 174 kts 229°
2026-04-29 04:27 -41.29703 172.90110 10003 ft 174 kts 229°
2026-04-29 04:28 -41.30563 172.88965 10002 ft 175 kts 229°
2026-04-29 04:28 -41.31402 172.87847 10001 ft 175 kts 229°
2026-04-29 04:28 -41.32281 172.86674 9997 ft 175 kts 229°
2026-04-29 04:28 -41.33141 172.85527 9996 ft 175 kts 229°
2026-04-29 04:29 -41.33994 172.84388 9994 ft 175 kts 229°
2026-04-29 04:29 -41.34862 172.83231 9995 ft 176 kts 229°
2026-04-29 04:29 -41.35719 172.82075 9992 ft 175 kts 230°
2026-04-29 04:29 -41.36566 172.80932 9993 ft 175 kts 229°
2026-04-29 04:30 -41.37435 172.79770 9994 ft 175 kts 229°
2026-04-29 04:30 -41.38244 172.78575 9995 ft 174 kts 235°
2026-04-29 04:30 -41.39664 172.75987 9993 ft 174 kts 238°
2026-04-29 04:31 -41.40373 172.74659 9990 ft 174 kts 238°
2026-04-29 04:31 -41.41058 172.73374 9990 ft 173 kts 238°
2026-04-29 04:31 -41.41766 172.72054 9990 ft 173 kts 238°
2026-04-29 04:31 -41.42469 172.70748 9997 ft 172 kts 238°
2026-04-29 04:32 -41.43165 172.69456 9997 ft 172 kts 238°
2026-04-29 04:32 -41.43868 172.68157 10000 ft 172 kts 237°
2026-04-29 04:32 -41.44572 172.66872 10001 ft 172 kts 238°
2026-04-29 04:32 -41.45272 172.65577 9999 ft 172 kts 238°
2026-04-29 04:33 -41.45979 172.64283 10001 ft 172 kts 238°
2026-04-29 04:33 -41.46541 172.62895 10004 ft 170 kts 250°
2026-04-29 04:33 -41.46919 172.61412 10006 ft 169 kts 255°
2026-04-29 04:33 -41.47270 172.59908 9997 ft 170 kts 254°
2026-04-29 04:34 -41.47647 172.58423 9999 ft 170 kts 253°
2026-04-29 04:34 -41.48052 172.56945 10001 ft 169 kts 252°
2026-04-29 04:34 -41.48464 172.55461 10001 ft 169 kts 252°
2026-04-29 04:34 -41.48862 172.53969 9990 ft 170 kts 253°
2026-04-29 04:35 -41.49253 172.52484 9989 ft 170 kts 253°
2026-04-29 04:35 -41.49654 172.51006 9988 ft 170 kts 252°
2026-04-29 04:35 -41.50050 172.49526 9999 ft 169 kts 252°
2026-04-29 04:35 -41.50451 172.48064 10019 ft 167 kts 252°
2026-04-29 04:36 -41.50837 172.46622 10035 ft 165 kts 252°
2026-04-29 04:36 -41.51218 172.45186 10035 ft 165 kts 253°
2026-04-29 04:36 -41.51611 172.43739 10036 ft 165 kts 252°
2026-04-29 04:36 -41.51998 172.42295 10036 ft 164 kts 252°
2026-04-29 04:37 -41.52376 172.40874 10042 ft 164 kts 252°
2026-04-29 04:37 -41.52765 172.39437 10042 ft 164 kts 253°
2026-04-29 04:37 -41.53147 172.37993 10049 ft 163 kts 253°
2026-04-29 04:37 -41.53531 172.36575 10045 ft 164 kts 252°
2026-04-29 04:38 -41.53910 172.35142 10040 ft 164 kts 252°
2026-04-29 04:38 -41.54296 172.33719 10027 ft 165 kts 252°
2026-04-29 04:38 -41.54684 172.32256 10006 ft 165 kts 253°
2026-04-29 04:38 -41.55069 172.30822 10002 ft 165 kts 252°
2026-04-29 04:39 -41.55449 172.29387 10001 ft 164 kts 252°
2026-04-29 04:39 -41.55834 172.27945 9998 ft 164 kts 252°
2026-04-29 04:39 -41.56215 172.26523 9997 ft 164 kts 253°
2026-04-29 04:39 -41.56595 172.25090 10001 ft 163 kts 252°
2026-04-29 04:40 -41.56978 172.23661 10007 ft 162 kts 253°
2026-04-29 04:40 -41.57356 172.22236 10002 ft 163 kts 252°
2026-04-29 04:40 -41.57738 172.20818 10004 ft 162 kts 252°
2026-04-29 04:40 -41.58110 172.19409 10008 ft 162 kts 253°
2026-04-29 04:41 -41.58479 172.17996 10007 ft 162 kts 253°
2026-04-29 04:41 -41.58852 172.16564 10006 ft 162 kts 253°
2026-04-29 04:41 -41.59224 172.15145 10008 ft 162 kts 253°
2026-04-29 04:41 -41.59588 172.13757 10005 ft 162 kts 253°
2026-04-29 04:42 -41.59967 172.12301 10005 ft 162 kts 253°
2026-04-29 04:42 -41.60338 172.10882 10005 ft 162 kts 253°
2026-04-29 04:42 -41.60715 172.09456 10005 ft 162 kts 253°
2026-04-29 04:42 -41.61091 172.08020 10007 ft 162 kts 253°
2026-04-29 04:43 -41.61463 172.06601 10005 ft 162 kts 253°
2026-04-29 04:43 -41.61836 172.05178 10008 ft 162 kts 253°
2026-04-29 04:43 -41.62212 172.03767 10005 ft 162 kts 252°
2026-04-29 04:43 -41.62580 172.02363 10007 ft 161 kts 253°
2026-04-29 04:44 -41.62947 172.00955 10007 ft 161 kts 253°
2026-04-29 04:44 -41.63333 171.99511 10007 ft 161 kts 253°
2026-04-29 04:44 -41.63697 171.98122 10009 ft 161 kts 253°
2026-04-29 04:44 -41.64074 171.96693 10006 ft 161 kts 253°
2026-04-29 04:45 -41.64450 171.95284 10002 ft 161 kts 252°
2026-04-29 04:45 -41.64827 171.93855 10000 ft 161 kts 253°
2026-04-29 04:45 -41.65199 171.92437 9999 ft 162 kts 253°
2026-04-29 04:45 -41.65573 171.91015 9998 ft 161 kts 253°
2026-04-29 04:46 -41.65943 171.89612 9995 ft 161 kts 253°
2026-04-29 04:46 -41.66319 171.88195 9997 ft 161 kts 253°
2026-04-29 04:46 -41.66680 171.86805 9997 ft 161 kts 253°
2026-04-29 04:46 -41.67062 171.85369 10003 ft 161 kts 252°
2026-04-29 04:47 -41.67433 171.83955 9997 ft 161 kts 253°
2026-04-29 04:47 -41.67804 171.82537 10000 ft 161 kts 253°
2026-04-29 04:47 -41.68174 171.81130 10001 ft 161 kts 252°
2026-04-29 04:47 -41.68552 171.79706 9998 ft 161 kts 253°
2026-04-29 04:48 -41.68920 171.78301 10004 ft 161 kts 253°
2026-04-29 04:48 -41.69286 171.76905 10002 ft 161 kts 253°
2026-04-29 04:48 -41.69662 171.75463 10000 ft 161 kts 253°
2026-04-29 04:48 -41.70036 171.74058 9998 ft 161 kts 252°
2026-04-29 04:49 -41.70408 171.72647 10001 ft 161 kts 253°
2026-04-29 04:49 -41.70778 171.71241 9996 ft 161 kts 252°
2026-04-29 04:49 -41.71153 171.69815 9997 ft 161 kts 253°
2026-04-29 04:49 -41.71524 171.68401 10003 ft 161 kts 253°
2026-04-29 04:50 -41.71896 171.66990 9999 ft 161 kts 253°
2026-04-29 04:50 -41.72263 171.65584 10003 ft 161 kts 253°
2026-04-29 04:50 -41.72636 171.64161 10002 ft 161 kts 253°
2026-04-29 04:50 -41.73004 171.62747 9998 ft 161 kts 253°
2026-04-29 04:51 -41.73378 171.61318 9999 ft 160 kts 253°
2026-04-29 04:51 -41.73745 171.59920 10000 ft 160 kts 252°
2026-04-29 04:51 -41.73987 171.58980 10000 ft 160 kts 253°
2026-04-29 04:51 -41.74450 171.57095 10001 ft 160 kts 255°
2026-04-29 04:52 -41.74668 171.56146 10007 ft 160 kts 255°
2026-04-29 04:52 -41.74999 171.54695 10001 ft 161 kts 255°
2026-04-29 04:52 -41.75327 171.53265 10001 ft 161 kts 255°
2026-04-29 04:52 -41.75651 171.51858 10000 ft 161 kts 255°
2026-04-29 04:53 -41.75977 171.50433 9998 ft 161 kts 255°
2026-04-29 04:53 -41.76306 171.48990 10001 ft 161 kts 255°
2026-04-29 04:53 -41.76631 171.47550 10001 ft 161 kts 255°
2026-04-29 04:53 -41.76955 171.46128 10001 ft 161 kts 255°
2026-04-29 04:54 -41.77283 171.44699 10001 ft 160 kts 255°
2026-04-29 04:54 -41.77611 171.43261 10004 ft 160 kts 255°
2026-04-29 04:54 -41.77935 171.41840 10000 ft 161 kts 255°
2026-04-29 04:54 -41.78264 171.40408 10002 ft 161 kts 255°
2026-04-29 04:55 -41.78592 171.38976 10001 ft 161 kts 255°
2026-04-29 04:55 -41.78917 171.37556 10000 ft 161 kts 255°
2026-04-29 04:55 -41.79246 171.36114 10001 ft 161 kts 255°
2026-04-29 04:55 -41.79569 171.34683 9997 ft 161 kts 255°
2026-04-29 04:56 -41.79884 171.33257 9998 ft 161 kts 255°
2026-04-29 04:56 -41.80213 171.31795 10000 ft 161 kts 255°
2026-04-29 04:56 -41.80529 171.30367 10004 ft 161 kts 255°
2026-04-29 04:56 -41.80857 171.28921 10002 ft 161 kts 255°
2026-04-29 04:57 -41.81173 171.27484 9999 ft 161 kts 255°
2026-04-29 04:57 -41.81495 171.26052 10000 ft 161 kts 255°
2026-04-29 04:57 -41.81820 171.24591 9996 ft 161 kts 256°
2026-04-29 04:57 -41.82138 171.23159 9998 ft 161 kts 255°
2026-04-29 04:58 -41.82465 171.21724 10000 ft 161 kts 255°
2026-04-29 04:58 -41.82779 171.20291 9997 ft 161 kts 255°
2026-04-29 04:58 -41.83431 171.19049 9993 ft 170 kts 221°
2026-04-29 04:58 -41.84560 171.18476 10016 ft 177 kts 202°
2026-04-29 04:59 -41.85764 171.18128 10008 ft 180 kts 199°
2026-04-29 04:59 -41.87009 171.17832 10005 ft 181 kts 198°
2026-04-29 04:59 -41.88264 171.17537 10002 ft 181 kts 198°
2026-04-29 04:59 -41.89494 171.17232 10004 ft 180 kts 199°
2026-04-29 05:00 -41.90715 171.16922 10004 ft 180 kts 199°
2026-04-29 05:00 -41.91953 171.16601 9999 ft 179 kts 199°
2026-04-29 05:00 -41.93188 171.16285 10003 ft 180 kts 199°
2026-04-29 05:00 -41.94421 171.15976 10000 ft 180 kts 198°
2026-04-29 05:01 -41.95646 171.15673 10001 ft 180 kts 199°
2026-04-29 05:01 -41.96882 171.15356 10002 ft 180 kts 199°
2026-04-29 05:01 -41.98112 171.15039 10001 ft 180 kts 199°
2026-04-29 05:01 -41.99344 171.14730 9997 ft 180 kts 199°
2026-04-29 05:02 -42.00576 171.14414 9998 ft 180 kts 199°
2026-04-29 05:02 -42.01810 171.14104 10001 ft 180 kts 199°
2026-04-29 05:02 -42.03061 171.13796 10001 ft 181 kts 199°
2026-04-29 05:02 -42.04277 171.13484 10001 ft 181 kts 199°
2026-04-29 05:03 -42.05528 171.13160 10001 ft 181 kts 199°
2026-04-29 05:03 -42.06752 171.12846 10001 ft 181 kts 198°
2026-04-29 05:03 -42.08008 171.12526 10001 ft 181 kts 199°
2026-04-29 05:03 -42.09238 171.12208 10001 ft 181 kts 199°
2026-04-29 05:04 -42.10478 171.11890 10001 ft 181 kts 199°
2026-04-29 05:04 -42.11715 171.11579 10001 ft 181 kts 199°
2026-04-29 05:04 -42.12950 171.11259 10001 ft 181 kts 199°
2026-04-29 05:04 -42.14179 171.10939 10001 ft 181 kts 199°
2026-04-29 05:05 -42.15421 171.10623 10001 ft 181 kts 199°
2026-04-29 05:05 -42.16655 171.10302 10001 ft 181 kts 199°
2026-04-29 05:05 -42.17889 171.09984 10001 ft 181 kts 199°
2026-04-29 05:05 -42.19136 171.09661 10001 ft 182 kts 199°
2026-04-29 05:06 -42.20386 171.09342 10001 ft 182 kts 199°
2026-04-29 05:06 -42.21627 171.09016 10001 ft 182 kts 199°
2026-04-29 05:06 -42.22900 171.08889 10003 ft 188 kts 186°
2026-04-29 05:06 -42.24231 171.08994 10002 ft 189 kts 184°
2026-04-29 05:07 -42.25532 171.09136 10002 ft 189 kts 183°
2026-04-29 05:07 -42.26851 171.09286 10001 ft 189 kts 183°
2026-04-29 05:07 -42.28161 171.09435 10001 ft 190 kts 183°
2026-04-29 05:07 -42.29473 171.09584 10001 ft 190 kts 183°
2026-04-29 05:08 -42.30778 171.09732 10001 ft 190 kts 183°
2026-04-29 05:08 -42.32108 171.09882 10001 ft 190 kts 183°
2026-04-29 05:08 -42.33414 171.10030 10003 ft 190 kts 183°
2026-04-29 05:08 -42.34725 171.10165 9999 ft 190 kts 184°
2026-04-29 05:09 -42.36043 171.10285 10002 ft 190 kts 184°
2026-04-29 05:09 -42.37364 171.10410 9999 ft 190 kts 183°
2026-04-29 05:09 -42.38686 171.10548 10000 ft 190 kts 183°
2026-04-29 05:09 -42.40001 171.10675 10005 ft 190 kts 184°
2026-04-29 05:10 -42.41319 171.10790 10001 ft 190 kts 184°
2026-04-29 05:10 -42.42634 171.10912 10003 ft 190 kts 184°
2026-04-29 05:10 -42.43963 171.11034 10002 ft 191 kts 183°
2026-04-29 05:10 -42.45277 171.11159 10002 ft 191 kts 184°
2026-04-29 05:11 -42.46624 171.11277 9999 ft 191 kts 184°
2026-04-29 05:11 -42.47936 171.11405 9997 ft 191 kts 183°
2026-04-29 05:11 -42.49241 171.11524 9996 ft 191 kts 184°
2026-04-29 05:11 -42.50587 171.11639 10000 ft 191 kts 184°
2026-04-29 05:12 -42.51899 171.11769 9799 ft 184 kts 184°
2026-04-29 05:12 -42.53152 171.11889 9535 ft 174 kts 185°
2026-04-29 05:12 -42.54328 171.11982 9274 ft 168 kts 185°
2026-04-29 05:12 -42.55450 171.12477 9019 ft 173 kts 158°
2026-04-29 05:13 -42.56436 171.13394 8770 ft 172 kts 151°
2026-04-29 05:13 -42.57397 171.14349 8471 ft 170 kts 152°
2026-04-29 05:13 -42.58369 171.15254 8170 ft 168 kts 154°
2026-04-29 05:13 -42.59346 171.16114 7870 ft 167 kts 156°
2026-04-29 05:14 -42.60311 171.16946 7574 ft 166 kts 156°
2026-04-29 05:14 -42.61311 171.17726 7260 ft 158 kts 171°
2026-04-29 05:14 -42.62293 171.17588 6951 ft 134 kts 220°
2026-04-29 05:14 -42.62825 171.16651 6673 ft 123 kts 247°
2026-04-29 05:15 -42.63184 171.15607 6376 ft 122 kts 249°
2026-04-29 05:15 -42.63563 171.14554 6071 ft 122 kts 246°
2026-04-29 05:15 -42.63968 171.13556 5775 ft 121 kts 244°
2026-04-29 05:15 -42.64381 171.12641 5512 ft 107 kts 243°
2026-04-29 05:16 -42.64763 171.11826 5200 ft 98 kts 243°
2026-04-29 05:16 -42.65124 171.11071 4893 ft 94 kts 244°
2026-04-29 05:16 -42.65472 171.10328 4587 ft 92 kts 244°
2026-04-29 05:16 -42.65818 171.09590 4284 ft 92 kts 244°
2026-04-29 05:17 -42.66166 171.08868 3985 ft 92 kts 242°
2026-04-29 05:17 -42.66538 171.08150 3683 ft 93 kts 241°
2026-04-29 05:17 -42.66911 171.07433 3382 ft 93 kts 241°
2026-04-29 05:17 -42.67280 171.06713 3081 ft 93 kts 240°
2026-04-29 05:18 -42.67645 171.05986 2781 ft 93 kts 240°
2026-04-29 05:18 -42.68012 171.05248 2477 ft 94 kts 240°
2026-04-29 05:18 -42.68383 171.04516 2179 ft 95 kts 240°
2026-04-29 05:18 -42.68762 171.03733 1832 ft 104 kts 239°
2026-04-29 05:19 -42.69137 171.02981 1566 ft 103 kts 239°
2026-04-29 05:20 -42.69479 171.02302 1339 ft 98 kts 240°
2026-04-29 05:20 -42.69823 171.01615 1095 ft 82 kts 242°
2026-04-29 05:20 -42.70061 171.00923 781 ft 79 kts 248°
2026-04-29 05:21 -42.70289 171.00255 496 ft 77 kts 242°
2026-04-29 05:21 -42.70563 170.99649 275 ft 72 kts 237°
2026-04-29 05:21 -42.70817 170.99123 156 ft 56 kts 237°
2026-04-29 05:21 -42.70920 170.98924 155 ft 0 kts 228°